createdAt,value
2017-06-10T00:00:48.498Z,81.66
2017-06-10T00:01:49.739Z,81.85
2017-06-10T00:02:50.983Z,82.08
2017-06-10T00:03:52.252Z,82.52
2017-06-10T00:04:53.488Z,82.61
2017-06-10T00:05:54.748Z,82.42
2017-06-10T00:06:55.999Z,82.71
2017-06-10T00:07:57.245Z,83.18
2017-06-10T00:08:58.477Z,83.67
2017-06-10T00:09:59.733Z,83.57
2017-06-10T00:11:00.977Z,83.57
2017-06-10T00:12:02.214Z,83.67
2017-06-10T00:13:03.468Z,83.86
2017-06-10T00:14:04.805Z,83.86
2017-06-10T00:15:06.050Z,84.43
2017-06-10T00:16:07.328Z,84.52
2017-06-10T00:17:08.584Z,84.62
2017-06-10T00:18:09.828Z,84.91
2017-06-10T00:19:11.149Z,85.19
2017-06-10T00:20:12.400Z,85.1
2017-06-10T00:21:13.625Z,84.62
2017-06-10T00:22:14.881Z,85.29
2017-06-10T00:23:16.133Z,85.77
2017-06-10T00:24:17.382Z,85.67
2017-06-10T00:25:18.626Z,85.63
2017-06-10T00:26:19.868Z,86.1
2017-06-10T00:27:21.187Z,86.3
2017-06-10T00:28:22.540Z,86.49
2017-06-10T00:29:23.760Z,86.87
2017-06-10T00:30:25.000Z,86.77
2017-06-10T00:31:26.236Z,86.39
2017-06-10T00:32:27.491Z,86.49
2017-06-10T00:33:28.740Z,86.49
2017-06-10T00:34:29.993Z,86.49
2017-06-10T00:35:31.223Z,86.77
2017-06-10T00:36:32.491Z,87.06
2017-06-10T00:37:33.729Z,86.49
2017-06-10T00:38:34.970Z,86.49
2017-06-10T00:39:36.217Z,86.49
2017-06-10T00:40:37.468Z,86.68
2017-06-10T00:41:38.708Z,86.58
2017-06-10T00:42:39.951Z,87.06
2017-06-10T00:43:41.187Z,86.96
2017-06-10T00:44:42.457Z,86.3
2017-06-10T00:45:43.673Z,86.49
2017-06-10T00:46:44.963Z,86.3
2017-06-10T00:47:46.217Z,86.49
2017-06-10T00:48:47.453Z,86.1
2017-06-10T00:49:48.711Z,86.01
2017-06-10T00:50:49.940Z,85.82
2017-06-10T00:51:51.187Z,86.1
2017-06-10T00:52:52.429Z,86.39
2017-06-10T00:53:53.676Z,86.49
2017-06-10T00:54:54.925Z,85.63
2017-06-10T00:55:56.167Z,85.72
2017-06-10T00:56:57.409Z,86.49
2017-06-10T00:57:58.682Z,86.39
2017-06-10T00:58:59.931Z,86.01
2017-06-10T01:00:01.184Z,86.49
2017-06-10T01:01:02.458Z,86.39
2017-06-10T01:02:03.678Z,85.44
2017-06-10T01:03:04.921Z,85.63
2017-06-10T01:04:06.156Z,85.05
2017-06-10T01:05:07.438Z,85.44
2017-06-10T01:06:08.862Z,85.72
2017-06-10T01:07:10.108Z,85.53
2017-06-10T01:08:11.346Z,85.15
2017-06-10T01:09:12.585Z,85.15
2017-06-10T01:10:13.829Z,85.82
2017-06-10T01:11:15.082Z,85.53
2017-06-10T01:12:16.409Z,85.63
2017-06-10T01:13:17.562Z,85.91
2017-06-10T01:14:18.779Z,85.91
2017-06-10T01:15:20.017Z,85.72
2017-06-10T01:16:21.311Z,85.91
2017-06-10T01:17:22.558Z,85.72
2017-06-10T01:18:23.817Z,85.91
2017-06-10T01:19:25.078Z,85.72
2017-06-10T01:20:26.313Z,86.39
2017-06-10T01:21:27.563Z,86.2
2017-06-10T01:22:28.811Z,86.3
2017-06-10T01:23:30.063Z,86.96
2017-06-10T01:24:31.319Z,86.58
2017-06-10T01:25:32.603Z,86.68
2017-06-10T01:26:33.867Z,87.54
2017-06-10T01:27:35.106Z,87.15
2017-06-10T01:28:36.428Z,87.73
2017-06-10T01:29:37.655Z,87.68
2017-06-10T01:30:39.009Z,88.16
2017-06-10T01:31:40.248Z,88.16
2017-06-10T01:32:41.501Z,88.01
2017-06-10T01:33:42.735Z,88.78
2017-06-10T01:34:43.983Z,88.97
2017-06-10T01:35:45.259Z,88.45
2017-06-10T01:36:46.496Z,89.4
2017-06-10T01:37:47.714Z,89.31
2017-06-10T01:38:49.027Z,89.31
2017-06-10T01:39:50.276Z,89.21
2017-06-10T01:40:51.535Z,89.78
2017-06-10T01:41:52.793Z,89.88
2017-06-10T01:42:54.035Z,89.97
2017-06-10T01:43:55.302Z,89.78
2017-06-10T01:44:56.534Z,90.55
2017-06-10T01:45:57.782Z,90.93
2017-06-10T01:46:59.041Z,91.12
2017-06-10T01:48:00.303Z,90.93
2017-06-10T01:49:01.583Z,91.69
2017-06-10T01:50:02.863Z,91.98
2017-06-10T01:51:04.118Z,91.6
2017-06-10T01:52:05.340Z,91.6
2017-06-10T01:53:06.580Z,91.88
2017-06-10T01:54:07.823Z,91.78
2017-06-10T01:55:09.074Z,92.07
2017-06-10T01:56:10.301Z,92.36
2017-06-10T01:57:11.580Z,92.36
2017-06-10T01:58:12.845Z,92.55
2017-06-10T01:59:14.142Z,92.74
2017-06-10T02:00:15.406Z,92.69
2017-06-10T02:01:16.632Z,92.41
2017-06-10T02:02:17.875Z,92.98
2017-06-10T02:03:19.128Z,92.93
2017-06-10T02:04:20.386Z,92.79
2017-06-10T02:05:21.640Z,92.69
2017-06-10T02:06:22.876Z,93.12
2017-06-10T02:07:24.156Z,93.27
2017-06-10T02:08:25.365Z,93.84
2017-06-10T02:09:26.590Z,93.84
2017-06-10T02:10:27.881Z,94.27
2017-06-10T02:11:29.180Z,94.12
2017-06-10T02:12:30.423Z,94.12
2017-06-10T02:13:31.672Z,94.32
2017-06-10T02:14:32.909Z,94.7
2017-06-10T02:15:34.164Z,94.6
2017-06-10T02:16:35.404Z,94.51
2017-06-10T02:17:36.694Z,94.7
2017-06-10T02:18:37.958Z,94.32
2017-06-10T02:19:39.182Z,94.89
2017-06-10T02:20:40.432Z,95.56
2017-06-10T02:21:41.682Z,95.46
2017-06-10T02:22:42.946Z,95.56
2017-06-10T02:23:44.198Z,95.17
2017-06-10T02:24:45.509Z,95.08
2017-06-10T02:25:46.732Z,95.27
2017-06-10T02:26:47.974Z,95.27
2017-06-10T02:27:49.225Z,95.65
2017-06-10T02:28:50.506Z,95.46
2017-06-10T02:29:51.783Z,95.94
2017-06-10T02:30:52.982Z,95.75
2017-06-10T02:31:54.283Z,95.56
2017-06-10T02:32:55.512Z,96.22
2017-06-10T02:33:56.767Z,96.22
2017-06-10T02:34:58.032Z,96.13
2017-06-10T02:35:59.282Z,96.51
2017-06-10T02:37:00.520Z,96.41
2017-06-10T02:38:01.757Z,96.51
2017-06-10T02:39:02.997Z,96.41
2017-06-10T02:40:04.247Z,96.32
2017-06-10T02:41:05.587Z,96.51
2017-06-10T02:42:06.952Z,96.41
2017-06-10T02:43:08.185Z,96.32
2017-06-10T02:44:09.410Z,96.89
2017-06-10T02:45:10.654Z,96.32
2017-06-10T02:46:11.914Z,96.51
2017-06-10T02:47:13.142Z,96.51
2017-06-10T02:48:14.395Z,96.61
2017-06-10T02:49:15.657Z,96.8
2017-06-10T02:50:16.877Z,96.61
2017-06-10T02:51:18.149Z,97.08
2017-06-10T02:52:19.372Z,96.8
2017-06-10T02:53:20.629Z,96.8
2017-06-10T02:54:21.879Z,97.17
2017-06-10T02:55:23.218Z,97.27
2017-06-10T02:56:24.470Z,97.46
2017-06-10T02:57:25.712Z,97.08
2017-06-10T02:58:26.960Z,97.56
2017-06-10T02:59:28.207Z,97.56
2017-06-10T03:00:29.494Z,97.46
2017-06-10T03:01:30.748Z,97.27
2017-06-10T03:02:31.980Z,98.13
2017-06-10T03:03:33.325Z,98.03
2017-06-10T03:04:34.592Z,97.75
2017-06-10T03:05:35.837Z,97.85
2017-06-10T03:06:37.084Z,98.22
2017-06-10T03:07:38.361Z,97.75
2017-06-10T03:08:39.603Z,97.94
2017-06-10T03:09:40.850Z,98.03
2017-06-10T03:10:42.091Z,97.94
2017-06-10T03:11:43.387Z,98.42
2017-06-10T03:12:44.644Z,98.22
2017-06-10T03:13:45.879Z,98.51
2017-06-10T03:14:47.134Z,98.42
2017-06-10T03:15:48.382Z,98.03
2017-06-10T03:16:49.634Z,98.32
2017-06-10T03:17:50.910Z,98.42
2017-06-10T03:18:52.136Z,98.22
2017-06-10T03:19:53.385Z,99.08
2017-06-10T03:20:54.758Z,98.61
2017-06-10T03:21:55.984Z,98.8
2017-06-10T03:22:57.239Z,98.9
2017-06-10T03:23:58.463Z,98.8
2017-06-10T03:24:59.707Z,98.99
2017-06-10T03:26:01.008Z,98.9
2017-06-10T03:27:02.245Z,98.9
2017-06-10T03:28:03.513Z,98.61
2017-06-10T03:29:04.738Z,98.9
2017-06-10T03:30:05.998Z,98.9
2017-06-10T03:31:07.254Z,98.99
2017-06-10T03:32:08.488Z,98.61
2017-06-10T03:33:09.739Z,99.08
2017-06-10T03:34:11.018Z,98.8
2017-06-10T03:35:12.281Z,98.51
2017-06-10T03:36:13.516Z,98.8
2017-06-10T03:37:14.760Z,98.61
2017-06-10T03:38:16.004Z,98.32
2017-06-10T03:39:17.245Z,97.94
2017-06-10T03:40:18.692Z,98.22
2017-06-10T03:41:19.839Z,97.75
2017-06-10T03:42:21.088Z,98.22
2017-06-10T03:43:22.313Z,97.32
2017-06-10T03:44:23.568Z,97.46
2017-06-10T03:45:24.806Z,97.71
2017-06-10T03:46:26.093Z,97.42
2017-06-10T03:47:27.369Z,96.89
2017-06-10T03:48:28.596Z,97.13
2017-06-10T03:49:29.867Z,96.75
2017-06-10T03:50:31.093Z,96.75
2017-06-10T03:51:32.363Z,96.46
2017-06-10T03:52:33.609Z,96.56
2017-06-10T03:53:34.882Z,96.66
2017-06-10T03:54:36.226Z,96.37
2017-06-10T03:55:37.472Z,96.56
2017-06-10T03:56:38.710Z,96.84
2017-06-10T03:57:39.957Z,96.66
2017-06-10T03:58:41.196Z,96.17
2017-06-10T03:59:42.460Z,96.46
2017-06-10T04:00:43.706Z,96.08
2017-06-10T04:01:44.957Z,96.46
2017-06-10T04:02:46.196Z,95.7
2017-06-10T04:03:47.437Z,95.89
2017-06-10T04:04:48.754Z,95.51
2017-06-10T04:05:50.050Z,95.32
2017-06-10T04:06:51.264Z,95.56
2017-06-10T04:07:52.528Z,94.7
2017-06-10T04:08:53.730Z,94.6
2017-06-10T04:09:54.984Z,93.74
2017-06-10T04:10:56.206Z,93.84
2017-06-10T04:11:57.461Z,92.88
2017-06-10T04:12:58.738Z,92.21
2017-06-10T04:13:59.992Z,92.02
2017-06-10T04:15:01.283Z,91.5
2017-06-10T04:16:02.501Z,91.21
2017-06-10T04:17:03.742Z,91.21
2017-06-10T04:18:04.996Z,90.83
2017-06-10T04:19:06.253Z,90.83
2017-06-10T04:20:07.523Z,90.35
2017-06-10T04:21:08.750Z,90.45
2017-06-10T04:22:09.986Z,90.45
2017-06-10T04:23:11.276Z,90.54
2017-06-10T04:24:12.516Z,90.45
2017-06-10T04:25:13.766Z,90.54
2017-06-10T04:26:15.083Z,90.54
2017-06-10T04:27:16.353Z,89.87
2017-06-10T04:28:17.613Z,89.68
2017-06-10T04:29:18.841Z,90.25
2017-06-10T04:30:20.082Z,90.16
2017-06-10T04:31:21.502Z,89.78
2017-06-10T04:32:22.978Z,89.97
2017-06-10T04:33:24.232Z,89.87
2017-06-10T04:34:25.486Z,89.68
2017-06-10T04:35:26.718Z,89.3
2017-06-10T04:36:27.974Z,89.49
2017-06-10T04:37:29.201Z,89.49
2017-06-10T04:38:30.464Z,88.73
2017-06-10T04:39:31.723Z,89.15
2017-06-10T04:40:32.966Z,88.48
2017-06-10T04:41:34.253Z,88.2
2017-06-10T04:42:35.499Z,88.39
2017-06-10T04:43:36.753Z,88.1
2017-06-10T04:44:38.008Z,88.2
2017-06-10T04:45:39.249Z,87.91
2017-06-10T04:46:40.495Z,87.53
2017-06-10T04:47:41.742Z,87.72
2017-06-10T04:48:43.018Z,87.24
2017-06-10T04:49:44.247Z,86.86
2017-06-10T04:50:45.502Z,86.86
2017-06-10T04:51:46.804Z,86.96
2017-06-10T04:52:48.042Z,86.96
2017-06-10T04:53:49.321Z,87.05
2017-06-10T04:54:50.561Z,86.9
2017-06-10T04:55:51.790Z,85.94
2017-06-10T04:56:53.060Z,85.57
2017-06-10T04:57:54.380Z,84.61
2017-06-10T04:58:55.667Z,83.89
2017-06-10T04:59:56.929Z,82.54
2017-06-10T05:00:58.173Z,81.73
2017-06-10T05:01:59.427Z,80.33
2017-06-10T05:03:00.751Z,78.22
2017-06-10T05:04:02.010Z,76.44
2017-06-10T05:05:03.239Z,75.39
2017-06-10T05:06:04.479Z,75.43
2017-06-10T05:07:05.735Z,73.9
2017-06-10T05:08:07.129Z,72.97
2017-06-10T05:09:08.346Z,71.28
2017-06-10T05:10:09.581Z,69.07
2017-06-10T05:11:10.823Z,67.47
2017-06-10T05:12:12.064Z,67.29
2017-06-10T05:13:13.373Z,66.8
2017-06-10T05:14:14.622Z,66.71
2017-06-10T05:15:15.860Z,66.67
2017-06-10T05:16:17.220Z,66.77
2017-06-10T05:17:18.459Z,67.35
2017-06-10T05:18:19.727Z,67.83
2017-06-10T05:19:20.988Z,68.21
2017-06-10T05:20:22.238Z,67.92
2017-06-10T05:21:23.573Z,67.63
2017-06-10T05:22:24.935Z,67.16
2017-06-10T05:23:26.167Z,67.35
2017-06-10T05:24:27.414Z,67.16
2017-06-10T05:25:28.651Z,67.16
2017-06-10T05:26:29.916Z,66.86
2017-06-10T05:27:31.231Z,67.44
2017-06-10T05:28:32.466Z,67.92
2017-06-10T05:29:33.731Z,67.89
2017-06-10T05:30:34.961Z,68.46
2017-06-10T05:31:36.205Z,69.33
2017-06-10T05:32:37.465Z,69.33
2017-06-10T05:33:38.727Z,69.13
2017-06-10T05:34:39.987Z,68.75
2017-06-10T05:35:41.233Z,69.04
2017-06-10T05:36:42.488Z,68.59
2017-06-10T05:37:43.731Z,67.09
2017-06-10T05:38:44.997Z,65.3
2017-06-10T05:39:46.254Z,63.12
2017-06-10T05:40:47.491Z,60.97
2017-06-10T05:41:48.752Z,58.53
2017-06-10T05:42:49.984Z,55.89
2017-06-10T05:43:51.234Z,53.31
2017-06-10T05:44:52.515Z,52.57
2017-06-10T05:45:53.758Z,50.47
2017-06-10T05:46:55.037Z,48.66
2017-06-10T05:47:56.424Z,47.45
2017-06-10T05:48:57.693Z,45.52
2017-06-10T05:49:58.914Z,45.25
2017-06-10T05:51:00.167Z,43.85
2017-06-10T05:52:01.420Z,42.61
2017-06-10T05:53:02.684Z,41.56
2017-06-10T05:54:03.933Z,39.26
2017-06-10T05:55:05.195Z,38.79
2017-06-10T05:56:06.430Z,38.23
2017-06-10T05:57:07.699Z,37.55
2017-06-10T05:58:09.051Z,37.47
2017-06-10T05:59:10.193Z,36.02
2017-06-10T06:00:11.520Z,35.25
2017-06-10T06:01:12.763Z,35.14
2017-06-10T06:02:14.007Z,35.71
2017-06-10T06:03:15.266Z,35.25
2017-06-10T06:04:16.515Z,34.67
2017-06-10T06:05:17.789Z,34.97
2017-06-10T06:06:19.145Z,34.77
2017-06-10T06:07:20.503Z,34.88
2017-06-10T06:08:21.744Z,34.01
2017-06-10T06:09:23.014Z,33.06
2017-06-10T06:10:24.283Z,33.06
2017-06-10T06:11:25.548Z,32.86
2017-06-10T06:12:26.891Z,32.87
2017-06-10T06:13:28.154Z,32.6
2017-06-10T06:14:29.452Z,31.53
2017-06-10T06:15:30.716Z,30.77
2017-06-10T06:16:31.944Z,30.68
2017-06-10T06:17:33.238Z,30.19
2017-06-10T06:18:34.486Z,30.29
2017-06-10T06:19:35.739Z,30.19
2017-06-10T06:20:36.988Z,29.92
2017-06-10T06:21:38.242Z,29.25
2017-06-10T06:22:39.543Z,28.78
2017-06-10T06:23:40.829Z,28.3
2017-06-10T06:24:42.041Z,26.63
2017-06-10T06:25:43.305Z,28.68
2017-06-10T06:26:44.568Z,27.72
2017-06-10T06:27:45.824Z,27.72
2017-06-10T06:28:47.127Z,27.13
2017-06-10T06:29:48.365Z,27.23
2017-06-10T06:30:49.669Z,26.95
2017-06-10T06:31:50.912Z,26.56
2017-06-10T06:32:52.172Z,25.98
2017-06-10T06:33:53.448Z,26.28
2017-06-10T06:34:54.726Z,25.61
2017-06-10T06:35:55.967Z,25.02
2017-06-10T06:36:57.227Z,25.33
2017-06-10T06:37:58.490Z,24.36
2017-06-10T06:38:59.775Z,23.9
2017-06-10T06:40:01.014Z,23.61
2017-06-10T06:41:02.257Z,22.91
2017-06-10T06:42:03.551Z,22.81
2017-06-10T06:43:04.864Z,23
2017-06-10T06:44:06.119Z,23.11
2017-06-10T06:45:07.370Z,22.81
2017-06-10T06:46:08.624Z,22.72
2017-06-10T06:47:09.889Z,22.44
2017-06-10T06:48:11.200Z,22.83
2017-06-10T06:49:12.478Z,22.16
2017-06-10T06:50:13.726Z,21.67
2017-06-10T06:51:15.016Z,21.3
2017-06-10T06:52:16.273Z,21.17
2017-06-10T06:53:17.593Z,22.44
2017-06-10T06:54:18.911Z,22.06
2017-06-10T06:55:20.137Z,21.27
2017-06-10T06:56:21.388Z,21.19
2017-06-10T06:57:22.638Z,20.7
2017-06-10T06:58:23.886Z,20.72
2017-06-10T06:59:25.183Z,19.95
2017-06-10T07:00:26.451Z,19.46
2017-06-10T07:01:27.774Z,18.88
2017-06-10T07:02:29.028Z,18.77
2017-06-10T07:03:30.292Z,19.07
2017-06-10T07:04:31.589Z,19.27
2017-06-10T07:05:32.846Z,18.59
2017-06-10T07:06:34.093Z,18.48
2017-06-10T07:07:35.442Z,18.96
2017-06-10T07:08:36.693Z,19.74
2017-06-10T07:09:37.948Z,19.74
2017-06-10T07:10:39.203Z,19.56
2017-06-10T07:11:40.483Z,18.49
2017-06-10T07:12:41.735Z,18.3
2017-06-10T07:13:43.083Z,17.82
2017-06-10T07:14:44.346Z,17.32
2017-06-10T07:15:45.602Z,17.99
2017-06-10T07:16:46.861Z,18.77
2017-06-10T07:17:48.123Z,18.37
2017-06-10T07:18:49.491Z,18.76
2017-06-10T07:19:50.868Z,19.35
2017-06-10T07:20:52.134Z,19.15
2017-06-10T07:21:53.403Z,19.13
2017-06-10T07:22:54.656Z,19.81
2017-06-10T07:23:55.903Z,19.43
2017-06-10T07:24:57.262Z,19.92
2017-06-10T07:25:58.501Z,19.24
2017-06-10T07:26:59.752Z,18.96
2017-06-10T07:28:01.021Z,18.57
2017-06-10T07:29:02.284Z,18.57
2017-06-10T07:30:03.545Z,17.9
2017-06-10T07:31:04.996Z,18
2017-06-10T07:32:06.358Z,17.71
2017-06-10T07:33:07.625Z,17.14
2017-06-10T07:34:08.893Z,16.93
2017-06-10T07:35:10.163Z,17.35
2017-06-10T07:36:11.447Z,17.05
2017-06-10T07:37:12.686Z,15.59
2017-06-10T07:38:13.949Z,15.2
2017-06-10T07:39:15.212Z,15.41
2017-06-10T07:40:16.475Z,14.92
2017-06-10T07:41:17.736Z,15.02
2017-06-10T07:42:18.999Z,14.12
2017-06-10T07:43:20.276Z,14.61
2017-06-10T07:44:21.517Z,14.61
2017-06-10T07:45:22.786Z,14.99
2017-06-10T07:46:24.031Z,15.67
2017-06-10T07:47:25.304Z,15.58
2017-06-10T07:48:26.571Z,15.69
2017-06-10T07:49:27.835Z,15
2017-06-10T07:50:29.142Z,14.49
2017-06-10T07:51:30.396Z,14.89
2017-06-10T07:52:31.732Z,15.28
2017-06-10T07:53:33.036Z,15.1
2017-06-10T07:54:34.297Z,14.61
2017-06-10T07:55:35.570Z,14.12
2017-06-10T07:56:36.831Z,14.12
2017-06-10T07:57:38.095Z,14.23
2017-06-10T07:58:39.345Z,13.84
2017-06-10T07:59:40.615Z,14.32
2017-06-10T08:00:41.873Z,13.83
2017-06-10T08:01:43.209Z,13.24
2017-06-10T08:02:44.499Z,14.03
2017-06-10T08:03:45.758Z,13.44
2017-06-10T08:04:47.022Z,13.15
2017-06-10T08:05:48.320Z,12.56
2017-06-10T08:06:49.555Z,12.46
2017-06-10T08:07:50.806Z,12.37
2017-06-10T08:08:52.066Z,12.47
2017-06-10T08:09:53.331Z,11.78
2017-06-10T08:10:54.590Z,12.37
2017-06-10T08:11:55.906Z,12.55
2017-06-10T08:12:57.363Z,12.26
2017-06-10T08:13:58.748Z,12.55
2017-06-10T08:15:00.029Z,12.35
2017-06-10T08:16:01.306Z,13.24
2017-06-10T08:17:02.566Z,13.34
2017-06-10T08:18:03.840Z,13.55
2017-06-10T08:19:05.186Z,12.38
2017-06-10T08:20:06.462Z,11.88
2017-06-10T08:21:07.770Z,11.98
2017-06-10T08:22:09.040Z,12.07
2017-06-10T08:23:10.350Z,11.58
2017-06-10T08:24:11.650Z,11.78
2017-06-10T08:25:12.919Z,11.78
2017-06-10T08:26:14.177Z,11.96
2017-06-10T08:27:15.458Z,12.37
2017-06-10T08:28:16.719Z,11.98
2017-06-10T08:29:17.984Z,11.39
2017-06-10T08:30:19.263Z,10.9
2017-06-10T08:31:20.646Z,10.79
2017-06-10T08:32:21.918Z,10.89
2017-06-10T08:33:23.177Z,10.9
2017-06-10T08:34:24.425Z,10.82
2017-06-10T08:35:25.686Z,10.52
2017-06-10T08:36:27.013Z,10.71
2017-06-10T08:37:28.287Z,10.22
2017-06-10T08:38:29.573Z,9.92
2017-06-10T08:39:30.832Z,9.91
2017-06-10T08:40:32.074Z,10.89
2017-06-10T08:41:33.468Z,10.29
2017-06-10T08:42:34.774Z,10.99
2017-06-10T08:43:36.011Z,10.89
2017-06-10T08:44:37.259Z,10.69
2017-06-10T08:45:38.527Z,11.39
2017-06-10T08:46:39.848Z,10.89
2017-06-10T08:47:41.145Z,10.41
2017-06-10T08:48:42.451Z,9.92
2017-06-10T08:49:43.733Z,9.94
2017-06-10T08:50:44.982Z,9.44
2017-06-10T08:51:46.253Z,9.75
2017-06-10T08:52:47.625Z,9.16
2017-06-10T08:53:48.916Z,8.76
2017-06-10T08:54:50.250Z,8.86
2017-06-10T08:55:51.533Z,8.46
2017-06-10T08:56:52.806Z,8.06
2017-06-10T08:57:54.065Z,8.75
2017-06-10T08:58:55.482Z,9.33
2017-06-10T08:59:56.753Z,10.51
2017-06-10T09:00:58.006Z,10.71
2017-06-10T09:01:59.263Z,11.01
2017-06-10T09:03:00.534Z,10.32
2017-06-10T09:04:01.922Z,10.22
2017-06-10T09:05:03.271Z,9.43
2017-06-10T09:06:04.561Z,9.53
2017-06-10T09:07:05.801Z,9.92
2017-06-10T09:08:07.068Z,10.11
2017-06-10T09:09:08.334Z,10.42
2017-06-10T09:10:09.747Z,10.22
2017-06-10T09:11:11.045Z,9.34
2017-06-10T09:12:12.311Z,9.34
2017-06-10T09:13:13.576Z,8.75
2017-06-10T09:14:14.847Z,9.04
2017-06-10T09:15:16.114Z,9.94
2017-06-10T09:16:17.570Z,9.34
2017-06-10T09:17:18.823Z,8.76
2017-06-10T09:18:20.086Z,8.56
2017-06-10T09:19:21.347Z,8.46
2017-06-10T09:20:22.635Z,8.45
2017-06-10T09:21:23.915Z,8.75
2017-06-10T09:22:25.168Z,8.75
2017-06-10T09:23:26.527Z,8.66
2017-06-10T09:24:27.799Z,8.07
2017-06-10T09:25:29.070Z,8.46
2017-06-10T09:26:30.342Z,8.75
2017-06-10T09:27:31.630Z,9.14
2017-06-10T09:28:32.896Z,9.53
2017-06-10T09:29:34.148Z,9.33
2017-06-10T09:30:35.408Z,9.92
2017-06-10T09:31:36.662Z,10.31
2017-06-10T09:32:38.009Z,10.3
2017-06-10T09:33:39.525Z,11
2017-06-10T09:34:40.749Z,10.89
2017-06-10T09:35:42.011Z,10.6
2017-06-10T09:36:43.288Z,11
2017-06-10T09:37:44.553Z,10
2017-06-10T09:38:45.871Z,10.78
2017-06-10T09:39:47.315Z,11.78
2017-06-10T09:40:48.570Z,9.82
2017-06-10T09:41:49.847Z,9.43
2017-06-10T09:42:51.141Z,9.34
2017-06-10T09:43:52.399Z,9.14
2017-06-10T09:44:53.658Z,9.05
2017-06-10T09:45:54.975Z,8.64
2017-06-10T09:46:56.234Z,9.63
2017-06-10T09:47:57.493Z,10.12
2017-06-10T09:48:58.742Z,10.11
2017-06-10T09:50:00.015Z,10.22
2017-06-10T09:51:01.372Z,10
2017-06-10T09:52:02.636Z,10.78
2017-06-10T09:53:03.918Z,11.37
2017-06-10T09:54:05.158Z,11.95
2017-06-10T09:55:06.441Z,12.84
2017-06-10T09:56:07.697Z,13.11
2017-06-10T09:57:08.966Z,14.38
2017-06-10T09:58:10.256Z,15.16
2017-06-10T09:59:11.528Z,14.37
2017-06-10T10:00:12.793Z,14.96
2017-06-10T10:01:14.104Z,14.75
2017-06-10T10:02:15.373Z,15.34
2017-06-10T10:03:16.895Z,15.44
2017-06-10T10:04:18.145Z,15.72
2017-06-10T10:05:19.377Z,16.11
2017-06-10T10:06:20.618Z,16.11
2017-06-10T10:07:21.931Z,16.11
2017-06-10T10:08:23.345Z,16.1
2017-06-10T10:09:24.604Z,16.58
2017-06-10T10:10:25.881Z,17.07
2017-06-10T10:11:27.140Z,17.05
2017-06-10T10:12:28.400Z,17.25
2017-06-10T10:13:29.759Z,18.31
2017-06-10T10:14:31.084Z,18.21
2017-06-10T10:15:32.333Z,18.13
2017-06-10T10:16:33.586Z,18.32
2017-06-10T10:17:34.839Z,18.12
2017-06-10T10:18:36.124Z,18.7
2017-06-10T10:19:37.368Z,18.23
2017-06-10T10:20:38.698Z,17.26
2017-06-10T10:21:39.903Z,17.16
2017-06-10T10:22:41.174Z,17.36
2017-06-10T10:23:42.430Z,17.55
2017-06-10T10:24:43.692Z,17.54
2017-06-10T10:25:45.059Z,18.3
2017-06-10T10:26:46.308Z,19.06
2017-06-10T10:27:47.589Z,20.03
2017-06-10T10:28:48.857Z,20.04
2017-06-10T10:29:50.086Z,20.53
2017-06-10T10:30:51.364Z,20.33
2017-06-10T10:31:52.613Z,20.25
2017-06-10T10:32:53.880Z,19.37
2017-06-10T10:33:55.150Z,19.47
2017-06-10T10:34:56.398Z,18.79
2017-06-10T10:35:57.700Z,19.68
2017-06-10T10:36:58.966Z,19.59
2017-06-10T10:38:00.235Z,19.49
2017-06-10T10:39:01.508Z,19.29
2017-06-10T10:40:02.807Z,19.1
2017-06-10T10:41:04.044Z,19.1
2017-06-10T10:42:05.355Z,18.89
2017-06-10T10:43:06.583Z,19.74
2017-06-10T10:44:07.838Z,20.23
2017-06-10T10:45:09.105Z,19.75
2017-06-10T10:46:10.353Z,20.45
2017-06-10T10:47:11.615Z,20.26
2017-06-10T10:48:12.860Z,20.07
2017-06-10T10:49:14.113Z,19.79
2017-06-10T10:50:15.366Z,19.89
2017-06-10T10:51:16.625Z,19.67
2017-06-10T10:52:17.875Z,20.07
2017-06-10T10:53:19.133Z,19.96
2017-06-10T10:54:20.379Z,20.46
2017-06-10T10:55:21.737Z,19.77
2017-06-10T10:56:23.149Z,20.04
2017-06-10T10:57:24.391Z,19.65
2017-06-10T10:58:25.648Z,20.51
2017-06-10T10:59:26.905Z,21.39
2017-06-10T11:00:28.190Z,21.48
2017-06-10T11:01:29.497Z,21.09
2017-06-10T11:02:30.786Z,21.39
2017-06-10T11:03:32.054Z,20.59
2017-06-10T11:04:33.354Z,20.3
2017-06-10T11:05:34.617Z,22.23
2017-06-10T11:06:35.942Z,22.62
2017-06-10T11:07:37.278Z,22.91
2017-06-10T11:08:38.460Z,22.72
2017-06-10T11:09:39.739Z,22.33
2017-06-10T11:10:40.982Z,22.91
2017-06-10T11:11:42.224Z,22.03
2017-06-10T11:12:43.592Z,22.73
2017-06-10T11:13:44.920Z,22.13
2017-06-10T11:14:46.202Z,23.57
2017-06-10T11:15:47.557Z,23.67
2017-06-10T11:16:48.829Z,23.67
2017-06-10T11:17:50.079Z,23.95
2017-06-10T11:18:51.401Z,24.34
2017-06-10T11:19:52.650Z,24.73
2017-06-10T11:20:53.945Z,25.32
2017-06-10T11:21:55.216Z,24.76
2017-06-10T11:22:56.473Z,23.6
2017-06-10T11:23:57.759Z,23.4
2017-06-10T11:24:59.044Z,22.81
2017-06-10T11:26:00.298Z,22.6
2017-06-10T11:27:01.600Z,23.47
2017-06-10T11:28:02.832Z,23.18
2017-06-10T11:29:04.089Z,24.24
2017-06-10T11:30:05.342Z,24.34
2017-06-10T11:31:06.597Z,24.73
2017-06-10T11:32:07.933Z,25.41
2017-06-10T11:33:09.133Z,24.15
2017-06-10T11:34:10.446Z,24.74
2017-06-10T11:35:11.703Z,24.26
2017-06-10T11:36:12.971Z,23.68
2017-06-10T11:37:14.223Z,22.8
2017-06-10T11:38:15.622Z,22.12
2017-06-10T11:39:16.881Z,22.51
2017-06-10T11:40:18.142Z,23.57
2017-06-10T11:41:19.403Z,23.28
2017-06-10T11:42:20.696Z,23.96
2017-06-10T11:43:22.071Z,25.03
2017-06-10T11:44:23.437Z,24.84
2017-06-10T11:45:24.682Z,25.12
2017-06-10T11:46:25.934Z,25.31
2017-06-10T11:47:27.220Z,25.6
2017-06-10T11:48:28.444Z,25.41
2017-06-10T11:49:29.701Z,26.87
2017-06-10T11:50:30.951Z,26.39
2017-06-10T11:51:32.208Z,26.29
2017-06-10T11:52:33.465Z,26.2
2017-06-10T11:53:34.717Z,25.31
2017-06-10T11:54:36.006Z,24.73
2017-06-10T11:55:37.326Z,25.9
2017-06-10T11:56:38.591Z,25.12
2017-06-10T11:57:39.845Z,25.1
2017-06-10T11:58:41.079Z,25.4
2017-06-10T11:59:42.332Z,25.4
2017-06-10T12:00:43.717Z,25.89
2017-06-10T12:01:44.958Z,26.06
2017-06-10T12:02:46.217Z,27.03
2017-06-10T12:03:47.521Z,27.4
2017-06-10T12:04:48.822Z,27.12
2017-06-10T12:05:50.075Z,26.06
2017-06-10T12:06:51.325Z,26.15
2017-06-10T12:07:52.574Z,25.86
2017-06-10T12:08:53.881Z,25.96
2017-06-10T12:09:55.191Z,25.96
2017-06-10T12:10:56.467Z,26.06
2017-06-10T12:11:57.710Z,25.75
2017-06-10T12:12:58.979Z,25.74
2017-06-10T12:14:00.249Z,26.71
2017-06-10T12:15:01.595Z,26.33
2017-06-10T12:16:02.866Z,26.12
2017-06-10T12:17:04.145Z,26.22
2017-06-10T12:18:05.385Z,26.11
2017-06-10T12:19:06.641Z,26.5
2017-06-10T12:20:07.892Z,26.89
2017-06-10T12:21:09.171Z,26.4
2017-06-10T12:22:10.440Z,26.49
2017-06-10T12:23:11.682Z,26.87
2017-06-10T12:24:12.932Z,26.6
2017-06-10T12:25:14.245Z,26.89
2017-06-10T12:26:15.496Z,26.98
2017-06-10T12:27:16.873Z,26.7
2017-06-10T12:28:18.095Z,27.18
2017-06-10T12:29:19.372Z,26.98
2017-06-10T12:30:20.624Z,26.98
2017-06-10T12:31:21.896Z,27.47
2017-06-10T12:32:23.195Z,28.44
2017-06-10T12:33:24.448Z,27.68
2017-06-10T12:34:25.790Z,27
2017-06-10T12:35:27.017Z,26.5
2017-06-10T12:36:28.281Z,27.08
2017-06-10T12:37:29.537Z,26.98
2017-06-10T12:38:30.795Z,27.75
2017-06-10T12:39:32.045Z,27.45
2017-06-10T12:40:33.301Z,28.03
2017-06-10T12:41:34.547Z,28.69
2017-06-10T12:42:35.802Z,27.93
2017-06-10T12:43:37.074Z,29.1
2017-06-10T12:44:38.329Z,30.07
2017-06-10T12:45:39.717Z,28.8
2017-06-10T12:46:40.939Z,28.22
2017-06-10T12:47:42.188Z,28.7
2017-06-10T12:48:43.429Z,27.33
2017-06-10T12:49:44.706Z,27.82
2017-06-10T12:50:46.023Z,28.02
2017-06-10T12:51:47.392Z,27.73
2017-06-10T12:52:48.655Z,28.61
2017-06-10T12:53:49.922Z,28.22
2017-06-10T12:54:51.179Z,27.64
2017-06-10T12:55:52.450Z,28.53
2017-06-10T12:56:53.738Z,28.53
2017-06-10T12:57:54.978Z,28.72
2017-06-10T12:58:56.235Z,27.84
2017-06-10T12:59:57.500Z,28.53
2017-06-10T13:00:58.758Z,28.53
2017-06-10T13:02:00.027Z,29.11
2017-06-10T13:03:01.297Z,29.5
2017-06-10T13:04:02.551Z,28.23
2017-06-10T13:05:03.789Z,26.87
2017-06-10T13:06:05.078Z,26.97
2017-06-10T13:07:06.340Z,27.56
2017-06-10T13:08:07.604Z,28.23
2017-06-10T13:09:08.877Z,27.08
2017-06-10T13:10:10.152Z,27.94
2017-06-10T13:11:11.397Z,28.33
2017-06-10T13:12:12.664Z,27.66
2017-06-10T13:13:13.976Z,28.61
2017-06-10T13:14:15.235Z,28.61